Time;durP1;ratioP1;P1;durP2;ratioP2;P2;SDS_P1;SDS_P2;PMS_P1;PMS_P2;Temp;Humidity;BMP_temperature;BMP_pressure;BME280_temperature;BME280_humidity;BME280_pressure;Samples;Min_cycle;Max_cycle;Signal;HPM_P1;HPM_P2
2023/09/06 00:00:33;;;;;;;8.40;5.20;;;;;;;-143.84;66.36;45098.56;5077416;28;20536;-54
2023/09/06 00:03:01;;;;;;;12.33;5.50;;;;;;;-143.84;66.07;45089.06;5077447;28;20818;-54
2023/09/06 00:05:29;;;;;;;8.20;5.47;;;;;;;-143.84;66.16;45104.28;5070458;28;20502;-54
2023/09/06 00:07:57;;;;;;;5.60;5.10;;;;;;;-143.84;65.65;45113.81;5072352;28;20856;-54
2023/09/06 00:10:24;;;;;;;6.60;4.43;;;;;;;-143.84;65.16;45102.38;5072835;28;20444;-54
2023/09/06 00:12:51;;;;;;;7.50;4.30;;;;;;;-143.84;65.04;45085.25;5071891;28;20447;-54
2023/09/06 00:15:19;;;;;;;9.30;5.10;;;;;;;-143.84;64.58;45102.38;5073850;28;20456;-54
2023/09/06 00:17:46;;;;;;;9.50;4.90;;;;;;;-143.84;64.59;45077.63;5071091;28;20448;-54
2023/09/06 00:20:20;;;;;;;19.17;4.87;;;;;;;-143.84;64.30;45100.47;5069253;28;20984;-54
2023/09/06 00:22:54;;;;;;;5.00;4.37;;;;;;;-143.84;64.75;45079.53;5073235;28;20452;-54
2023/09/06 00:25:21;;;;;;;17.93;5.10;;;;;;;-143.84;64.34;45106.19;5080162;28;20444;-54
2023/09/06 00:27:50;;;;;;;7.50;4.40;;;;;;;-143.84;64.38;45110.00;5069098;28;20479;-54
2023/09/06 00:30:18;;;;;;;8.53;4.03;;;;;;;-143.84;64.17;45068.13;5072823;28;20472;-54
2023/09/06 00:32:45;;;;;;;12.03;4.70;;;;;;;-143.84;64.14;45117.63;5071324;28;20436;-54
2023/09/06 00:35:15;;;;;;;20.17;4.37;;;;;;;-143.84;64.19;45108.09;5078397;28;20496;-54
2023/09/06 00:37:42;;;;;;;7.33;5.33;;;;;;;-143.84;64.62;45085.25;5077503;28;20449;-54
2023/09/06 00:40:14;;;;;;;13.70;3.80;;;;;;;-143.84;64.58;45092.88;5074790;28;20587;-54
2023/09/06 00:42:41;;;;;;;9.17;4.80;;;;;;;-143.84;64.35;45079.53;5073874;28;20457;-54
2023/09/06 00:45:09;;;;;;;5.33;4.40;;;;;;;-143.84;64.64;45090.97;5069588;28;20525;-54
2023/09/06 00:47:37;;;;;;;4.13;3.70;;;;;;;-143.84;64.82;45079.53;5074096;28;21400;-54
2023/09/06 00:50:06;;;;;;;8.33;4.30;;;;;;;-143.84;65.26;45077.63;5068906;28;20441;-54
2023/09/06 00:52:34;;;;;;;7.07;4.20;;;;;;;-143.84;65.38;45104.28;5069330;28;20866;-54
2023/09/06 00:55:02;;;;;;;4.27;3.97;;;;;;;-143.84;65.39;45092.88;5072596;28;20463;-54
2023/09/06 00:57:32;;;;;;;5.70;4.03;;;;;;;-143.84;65.58;45081.44;5074809;28;20818;-54
2023/09/06 01:00:01;;;;;;;15.40;5.00;;;;;;;-143.84;65.88;45096.66;5071443;28;20836;-54
2023/09/06 01:02:28;;;;;;;8.67;4.20;;;;;;;-143.84;65.63;45110.00;5064438;28;20444;-54
2023/09/06 01:04:55;;;;;;;6.37;4.10;;;;;;;-143.84;65.75;45108.09;5077524;28;20569;-54
2023/09/06 01:07:27;;;;;;;11.70;4.80;;;;;;;-143.84;66.04;45102.38;5072138;28;21013;-54
2023/09/06 01:09:56;;;;;;;17.57;4.60;;;;;;;-143.84;66.19;45089.06;5072401;28;20451;-54
2023/09/06 01:12:23;;;;;;;5.10;4.50;;;;;;;-143.84;66.46;45102.38;5072455;28;20467;-54
2023/09/06 01:14:50;;;;;;;5.23;4.80;;;;;;;-143.84;66.79;45079.53;5071275;28;21009;-54
2023/09/06 01:17:20;;;;;;;12.33;4.80;;;;;;;-143.84;66.79;45098.56;5072733;28;20457;-54
2023/09/06 01:19:52;;;;;;;4.13;3.83;;;;;;;-143.84;67.23;45094.78;5067785;28;20805;-54
2023/09/06 01:22:27;;;;;;;9.50;4.80;;;;;;;-143.84;67.50;45098.56;5071139;28;20455;-54
2023/09/06 01:24:56;;;;;;;9.63;4.47;;;;;;;-143.84;67.79;45092.88;5073220;28;20456;-54
2023/09/06 01:27:24;;;;;;;9.63;5.20;;;;;;;-143.84;67.95;45089.06;5072127;28;20485;-54
2023/09/06 01:29:51;;;;;;;7.97;4.80;;;;;;;-143.84;68.16;45094.78;5071693;28;20433;-54
2023/09/06 01:32:18;;;;;;;6.17;5.00;;;;;;;-143.84;68.49;45117.63;5068651;28;21287;-54
2023/09/06 01:34:45;;;;;;;6.07;4.70;;;;;;;-143.84;68.77;45115.72;5067784;28;20896;-54
2023/09/06 01:37:12;;;;;;;5.80;4.70;;;;;;;-143.84;68.98;45106.19;5071416;28;20444;-54
2023/09/06 01:39:40;;;;;;;12.90;4.30;;;;;;;-143.84;69.21;45100.47;5072313;28;20463;-54
2023/09/06 01:42:09;;;;;;;5.53;4.97;;;;;;;-143.84;69.55;45104.28;5077215;28;20531;-54
2023/09/06 01:44:36;;;;;;;8.50;4.60;;;;;;;-143.84;69.93;45106.19;5073106;28;20454;-54
2023/09/06 01:47:05;;;;;;;5.87;5.10;;;;;;;-143.84;70.15;45083.34;5076821;28;20833;-54
2023/09/06 01:49:32;;;;;;;10.27;4.90;;;;;;;-143.84;70.45;45098.56;5071998;28;20448;-54
2023/09/06 01:52:01;;;;;;;6.37;5.63;;;;;;;-143.84;71.07;45068.13;5072435;28;20501;-54
2023/09/06 01:54:28;;;;;;;5.90;5.40;;;;;;;-143.84;71.54;45092.88;5075073;28;20483;-54
2023/09/06 01:56:55;;;;;;;10.83;5.63;;;;;;;-143.84;72.00;45106.19;5070556;28;20456;-54
2023/09/06 01:59:24;;;;;;;7.40;5.87;;;;;;;-143.84;72.18;45108.09;5077233;28;21416;-54
2023/09/06 02:01:54;;;;;;;8.93;6.30;;;;;;;-143.84;72.41;45085.25;5070237;28;20453;-54
2023/09/06 02:04:21;;;;;;;10.40;5.97;;;;;;;-143.84;72.89;45098.56;5068038;28;21002;-54
2023/09/06 02:06:49;;;;;;;6.90;4.87;;;;;;;-143.84;72.50;45104.28;5069609;28;20821;-54
2023/09/06 02:09:17;;;;;;;8.83;6.07;;;;;;;-143.84;73.22;45085.25;5073799;28;20874;-54
2023/09/06 02:11:44;;;;;;;7.67;6.70;;;;;;;-143.84;73.90;45113.81;5067384;28;20455;-54
2023/09/06 02:14:11;;;;;;;8.77;6.77;;;;;;;-143.84;74.51;45108.09;5067549;28;20512;-54
2023/09/06 02:16:40;;;;;;;7.33;5.73;;;;;;;-143.84;75.06;45115.72;5066824;28;20548;-54
2023/09/06 02:19:08;;;;;;;10.43;6.67;;;;;;;-143.84;75.58;45115.72;5074282;28;20452;-54
2023/09/06 02:21:35;;;;;;;10.30;6.70;;;;;;;-143.84;75.43;45110.00;5074012;28;20884;-54
2023/09/06 02:24:03;;;;;;;10.10;7.17;;;;;;;-143.84;76.16;45085.25;5072752;28;20950;-54
2023/09/06 02:26:30;;;;;;;14.23;6.33;;;;;;;-143.84;76.01;45083.34;5065538;28;21005;-54
2023/09/06 02:28:58;;;;;;;6.83;6.23;;;;;;;-143.84;76.29;45092.88;5066432;28;20489;-54
2023/09/06 02:31:25;;;;;;;8.93;6.43;;;;;;;-143.84;77.02;45092.88;5075400;28;20456;-54
2023/09/06 02:33:55;;;;;;;7.60;6.30;;;;;;;-143.84;76.79;45094.78;5070590;28;20440;-54
2023/09/06 02:36:22;;;;;;;9.13;6.23;;;;;;;-143.84;77.12;45087.16;5070122;28;20453;-54
2023/09/06 02:38:49;;;;;;;8.53;6.50;;;;;;;-143.84;77.90;45089.06;5068736;28;20445;-54
2023/09/06 02:41:16;;;;;;;11.53;7.13;;;;;;;-143.84;78.38;45106.19;5073816;28;20440;-54
2023/09/06 02:43:44;;;;;;;10.57;6.80;;;;;;;-143.84;78.25;45085.25;5074170;28;20453;-54
2023/09/06 02:46:12;;;;;;;10.67;6.17;;;;;;;-143.84;78.30;45081.44;5071926;28;20949;-54
2023/09/06 02:48:39;;;;;;;15.73;7.80;;;;;;;-143.84;78.51;45110.00;5067841;28;20597;-54
2023/09/06 02:51:10;;;;;;;13.33;7.10;;;;;;;-143.84;78.93;45083.34;5077464;28;20444;-54
2023/09/06 02:53:44;;;;;;;10.47;7.27;;;;;;;-143.84;79.08;45094.78;5067505;28;20510;-54
2023/09/06 02:56:13;;;;;;;14.80;7.57;;;;;;;-143.84;79.39;45077.63;5069039;28;20453;-54
2023/09/06 02:58:42;;;;;;;12.57;6.67;;;;;;;-143.84;79.40;45098.56;5070584;28;20488;-54
2023/09/06 03:01:19;;;;;;;13.47;7.73;;;;;;;-143.84;79.82;45085.25;5069130;28;20541;-54
2023/09/06 03:03:48;;;;;;;15.50;7.90;;;;;;;-143.84;80.04;45087.16;5072000;28;21828;-54
2023/09/06 03:06:18;;;;;;;9.27;6.80;;;;;;;-143.84;80.10;45087.16;5074317;28;20471;-54
2023/09/06 03:08:45;;;;;;;20.03;6.97;;;;;;;-143.84;80.51;45115.72;5071283;28;20584;-54
2023/09/06 03:11:14;;;;;;;10.93;7.23;;;;;;;-143.84;80.81;45121.44;5075125;28;20437;-54
2023/09/06 03:13:42;;;;;;;13.20;8.30;;;;;;;-143.84;81.71;45098.56;5073894;28;20463;-54
2023/09/06 03:16:13;;;;;;;11.83;7.47;;;;;;;-143.84;81.98;45129.03;5066901;28;20436;-54
2023/09/06 03:18:41;;;;;;;9.50;7.57;;;;;;;-143.84;82.21;45111.91;5070369;28;20451;-54
2023/09/06 03:21:08;;;;;;;14.47;7.80;;;;;;;-143.84;81.96;45092.88;5072780;28;20440;-54
2023/09/06 03:23:38;;;;;;;14.13;7.70;;;;;;;-143.84;81.87;45102.38;5071420;28;20490;-55
2023/09/06 03:26:05;;;;;;;11.33;7.50;;;;;;;-143.84;81.62;45113.81;5075194;28;20548;-55
2023/09/06 03:28:33;;;;;;;12.63;8.50;;;;;;;-143.84;82.04;45119.53;5074160;28;20498;-55
2023/09/06 03:31:00;;;;;;;10.80;7.20;;;;;;;-143.84;82.16;45108.09;5073378;28;20944;-54
2023/09/06 03:33:27;;;;;;;13.37;8.20;;;;;;;-143.84;81.96;45089.06;5073633;28;20508;-54
2023/09/06 03:35:55;;;;;;;8.63;7.83;;;;;;;-143.84;81.81;45106.19;5091490;28;20470;-54
2023/09/06 03:38:25;;;;;;;16.50;8.67;;;;;;;-143.84;82.06;45110.00;5091706;28;20515;-54
2023/09/06 03:40:53;;;;;;;18.03;9.10;;;;;;;-143.84;82.08;45096.66;5092659;28;21043;-54
2023/09/06 03:43:26;;;;;;;15.37;8.00;;;;;;;-143.84;82.49;45100.47;5091743;28;20440;-55
2023/09/06 03:45:55;;;;;;;10.17;8.33;;;;;;;-143.84;82.62;45104.28;5090547;28;20472;-56
2023/09/06 03:48:24;;;;;;;10.93;7.73;;;;;;;-143.84;82.76;45117.63;5090975;28;20566;-56
2023/09/06 03:50:52;;;;;;;9.47;7.70;;;;;;;-143.84;82.75;45121.44;5091677;28;20444;-56
2023/09/06 03:53:20;;;;;;;11.03;7.40;;;;;;;-143.84;82.89;45085.25;5091994;28;20486;-56
2023/09/06 03:55:47;;;;;;;9.93;8.37;;;;;;;-143.84;82.99;45106.19;5091549;28;20436;-56
2023/09/06 03:58:15;;;;;;;10.97;8.20;;;;;;;-143.84;82.64;45121.44;5091554;28;20439;-56
2023/09/06 04:00:43;;;;;;;12.53;8.10;;;;;;;-143.84;82.50;45115.72;5091255;28;20481;-56
2023/09/06 04:03:10;;;;;;;9.93;8.30;;;;;;;-143.84;82.78;45094.78;5091326;28;20536;-56
2023/09/06 04:05:40;;;;;;;9.00;7.60;;;;;;;-143.84;82.70;45096.66;5091321;28;20440;-56
2023/09/06 04:08:09;;;;;;;13.83;8.90;;;;;;;-143.84;82.81;45096.66;5091542;28;20465;-56
2023/09/06 04:10:38;;;;;;;10.90;8.30;;;;;;;-143.84;82.74;45075.72;5091549;28;21267;-56
2023/09/06 04:13:06;;;;;;;12.40;8.50;;;;;;;-143.84;82.81;45073.81;5091595;28;20792;-56
2023/09/06 04:15:35;;;;;;;17.00;8.63;;;;;;;-143.84;82.56;45106.19;5091261;28;20471;-56
2023/09/06 04:18:04;;;;;;;12.00;8.83;;;;;;;-143.84;82.52;45106.19;5091320;28;20957;-56
2023/09/06 04:20:35;;;;;;;16.80;9.37;;;;;;;-143.84;82.34;45125.22;5090985;28;20436;-56
2023/09/06 04:23:04;;;;;;;9.67;8.67;;;;;;;-143.84;82.21;45119.53;5091223;28;20436;-56
2023/09/06 04:25:33;;;;;;;20.27;8.03;;;;;;;-143.84;81.73;45117.63;5090864;28;20443;-56
2023/09/06 04:28:07;;;;;;;21.17;8.20;;;;;;;-143.84;81.89;45083.34;5090742;28;20995;-56
2023/09/06 04:30:36;;;;;;;10.90;8.20;;;;;;;-143.84;81.67;45092.88;5091419;28;21326;-56
2023/09/06 04:33:05;;;;;;;10.80;8.50;;;;;;;-143.84;81.46;45087.16;5089644;28;20433;-56
2023/09/06 04:35:35;;;;;;;28.47;8.67;;;;;;;-143.84;81.38;45100.47;5090726;28;20451;-56
2023/09/06 04:38:03;;;;;;;13.60;8.60;;;;;;;-143.84;81.05;45096.66;5090975;28;20494;-56
2023/09/06 04:40:30;;;;;;;17.50;8.07;;;;;;;-143.84;80.75;45079.53;5090756;28;20503;-56
2023/09/06 04:42:57;;;;;;;12.10;9.77;;;;;;;-143.84;80.62;45127.13;5090011;28;20451;-56
2023/09/06 04:45:25;;;;;;;12.63;8.47;;;;;;;-143.84;80.36;45075.72;5090401;28;20460;-56
2023/09/06 04:47:53;;;;;;;15.13;8.03;;;;;;;-143.84;79.88;45119.53;5091383;28;20528;-56
2023/09/06 04:50:21;;;;;;;12.47;9.43;;;;;;;-143.84;79.21;45089.06;5091229;28;20488;-56
2023/09/06 04:52:51;;;;;;;10.77;9.10;;;;;;;-143.84;78.14;45104.28;5091081;28;20454;-57
2023/09/06 04:55:19;;;;;;;10.80;8.00;;;;;;;-143.84;77.15;45070.00;5091025;28;20432;-56
2023/09/06 04:57:47;;;;;;;13.17;8.67;;;;;;;-143.84;76.78;45077.63;5091290;28;20509;-56
2023/09/06 05:00:23;;;;;;;11.00;8.77;;;;;;;-143.84;75.35;45089.06;5091188;28;20468;-57
2023/09/06 05:02:53;;;;;;;13.57;7.87;;;;;;;-143.84;73.81;45081.44;5091184;28;21000;-57
2023/09/06 05:05:21;;;;;;;12.63;8.93;;;;;;;-143.84;72.97;45087.16;5090978;28;20440;-57
2023/09/06 05:07:48;;;;;;;14.20;8.73;;;;;;;-143.84;72.19;45073.81;5090850;28;20490;-57
2023/09/06 05:10:15;;;;;;;18.50;8.87;;;;;;;-143.84;71.82;45073.81;5090681;28;21180;-57
2023/09/06 05:12:42;;;;;;;10.13;7.57;;;;;;;-143.84;70.69;45085.25;5091163;28;20825;-57
2023/09/06 05:15:12;;;;;;;11.57;8.40;;;;;;;-143.84;69.30;45052.88;5090389;28;20436;-57
2023/09/06 05:17:40;;;;;;;10.87;8.50;;;;;;;-143.84;67.54;45052.88;5090902;28;20451;-57
2023/09/06 05:20:29;;;;;;;17.37;8.70;;;;;;;-143.84;66.69;45047.16;5090876;28;20444;-57
2023/09/06 05:22:56;;;;;;;10.90;8.83;;;;;;;-143.84;66.00;45058.59;5090605;28;20505;-57
2023/09/06 05:25:24;;;;;;;16.73;9.27;;;;;;;-143.84;65.09;45049.06;5091201;28;20767;-57
2023/09/06 05:27:52;;;;;;;11.87;8.37;;;;;;;-143.84;64.41;45049.06;5071691;28;20441;-57
2023/09/06 05:30:19;;;;;;;17.53;9.00;;;;;;;-143.84;63.55;45071.91;5070018;28;20484;-57
2023/09/06 05:32:46;;;;;;;15.90;8.53;;;;;;;-143.84;63.32;45110.00;5069969;28;20433;-57
2023/09/06 05:35:13;;;;;;;19.20;8.50;;;;;;;-143.84;63.17;45056.69;5070204;28;21031;-57
2023/09/06 05:37:42;;;;;;;10.83;9.27;;;;;;;-143.84;62.60;45041.44;5069787;28;20433;-57
2023/09/06 05:40:12;;;;;;;16.53;8.63;;;;;;;-143.84;61.86;45062.41;5069744;28;20505;-57
2023/09/06 05:42:40;;;;;;;11.33;8.63;;;;;;;-143.84;61.52;45052.88;5069821;28;21295;-57
2023/09/06 05:45:10;;;;;;;11.23;7.60;;;;;;;-143.84;61.01;45035.75;5069772;28;20478;-57
2023/09/06 05:47:38;;;;;;;17.60;8.37;;;;;;;-143.84;60.32;45022.41;5069983;28;20910;-57
2023/09/06 05:50:06;;;;;;;11.60;9.50;;;;;;;-143.84;59.76;45026.22;5088494;28;20556;-57
2023/09/06 05:52:34;;;;;;;13.30;9.40;;;;;;;-143.84;59.53;45047.16;5089559;28;21026;-54
2023/09/06 05:55:03;;;;;;;15.27;9.20;;;;;;;-143.84;59.14;45049.06;5089398;28;20428;-59
2023/09/06 05:57:32;;;;;;;11.93;8.80;;;;;;;-143.84;58.63;45030.03;5088970;28;20852;-59
2023/09/06 05:59:59;;;;;;;16.20;8.97;;;;;;;-143.84;58.37;45049.06;5089079;28;20522;-59
2023/09/06 06:02:27;;;;;;;12.60;8.73;;;;;;;-143.84;57.59;45031.94;5088967;28;20459;-59
2023/09/06 06:04:55;;;;;;;18.20;8.97;;;;;;;-143.84;56.94;45041.44;5089296;28;20436;-59
2023/09/06 06:07:22;;;;;;;9.93;8.20;;;;;;;-143.84;56.49;45026.22;5089253;28;20813;-59
2023/09/06 06:09:49;;;;;;;11.73;8.50;;;;;;;-143.84;56.67;45024.31;5089134;28;20472;-59
2023/09/06 06:12:22;;;;;;;14.20;8.60;;;;;;;-143.84;56.85;45030.03;5089075;28;20444;-59
2023/09/06 06:14:51;;;;;;;16.33;9.00;;;;;;;-143.84;56.87;45010.97;5089165;28;20444;-59
2023/09/06 06:17:18;;;;;;;25.17;8.00;;;;;;;-143.84;56.25;45024.31;5089474;28;20446;-57
2023/09/06 06:19:46;;;;;;;9.67;7.57;;;;;;;-143.84;56.15;45028.13;5089278;28;20432;-57
2023/09/06 06:22:13;;;;;;;13.87;8.90;;;;;;;-143.84;56.03;45028.13;5089631;28;20443;-57
2023/09/06 06:24:43;;;;;;;12.43;8.60;;;;;;;-143.84;56.17;45026.22;5089178;28;21141;-57
2023/09/06 06:27:10;;;;;;;13.97;9.33;;;;;;;-143.84;56.45;45024.31;5089024;28;20442;-57
2023/09/06 06:29:38;;;;;;;13.50;8.60;;;;;;;-143.84;56.43;45012.88;5089220;28;20510;-57
2023/09/06 06:32:06;;;;;;;12.90;8.67;;;;;;;-143.84;56.58;45014.78;5089057;28;20485;-57
2023/09/06 06:34:38;;;;;;;9.87;7.47;;;;;;;-143.84;55.77;45018.59;5088856;28;20531;-57
2023/09/06 06:37:05;;;;;;;12.87;8.07;;;;;;;-143.84;54.72;45020.50;5088808;28;20530;-57
2023/09/06 06:39:33;;;;;;;9.77;8.00;;;;;;;-143.84;54.92;45030.03;5088843;28;20480;-57
2023/09/06 06:42:00;;;;;;;15.93;8.20;;;;;;;-143.84;53.86;45009.09;5088779;28;20456;-57
2023/09/06 06:44:27;;;;;;;11.70;8.30;;;;;;;-143.84;53.21;45020.50;5088685;28;20448;-57
2023/09/06 06:46:56;;;;;;;9.90;7.63;;;;;;;-143.84;53.21;44997.66;5088947;28;20467;-57
2023/09/06 06:49:23;;;;;;;9.17;8.10;;;;;;;-143.84;53.63;45012.88;5088360;28;20646;-54
2023/09/06 06:51:50;;;;;;;8.13;7.33;;;;;;;-143.84;52.81;45003.38;5088039;28;21000;-55
2023/09/06 06:54:21;;;;;;;11.30;7.77;;;;;;;-143.84;52.95;45003.38;5088324;28;20424;-55
2023/09/06 06:56:48;;;;;;;11.90;8.40;;;;;;;-143.84;52.33;44999.56;5087100;28;20451;-54
2023/09/06 06:59:15;;;;;;;10.30;7.77;;;;;;;-143.84;52.33;45001.47;5087796;28;20484;-55
2023/09/06 07:01:42;;;;;;;13.93;7.30;;;;;;;-143.84;51.02;44995.75;5088150;28;20444;-55
2023/09/06 07:04:11;;;;;;;12.80;8.57;;;;;;;-143.84;51.56;44993.84;5088516;28;20790;-55
2023/09/06 07:06:38;;;;;;;11.50;9.10;;;;;;;-143.84;51.01;45005.28;5088283;28;20440;-54
2023/09/06 07:09:05;;;;;;;12.23;8.27;;;;;;;-143.84;50.74;45005.28;5088254;28;20473;-55
2023/09/06 07:11:32;;;;;;;17.30;8.80;;;;;;;-143.84;50.01;44980.53;5088593;28;20440;-55
2023/09/06 07:14:00;;;;;;;16.40;8.27;;;;;;;-143.84;49.69;44969.09;5088244;28;20489;-55
2023/09/06 07:16:27;;;;;;;8.63;7.83;;;;;;;-143.84;49.45;44971.00;5088963;28;20497;-59
2023/09/06 07:18:54;;;;;;;17.90;8.50;;;;;;;-143.84;48.61;44963.38;5088480;28;20448;-59
2023/09/06 07:21:24;;;;;;;11.37;8.13;;;;;;;-143.84;48.19;44976.72;5088623;28;20439;-59
2023/09/06 07:23:51;;;;;;;18.83;9.73;;;;;;;-143.84;47.97;44988.13;5088104;28;20444;-59
2023/09/06 07:26:18;;;;;;;15.83;8.80;;;;;;;-143.84;46.49;44971.00;5087761;28;20443;-57
2023/09/06 07:28:47;;;;;;;12.67;8.67;;;;;;;-143.84;47.20;44957.66;5088088;28;20489;-60
2023/09/06 07:31:15;;;;;;;10.23;7.63;;;;;;;-143.84;47.26;44951.97;5088092;28;20529;-59
2023/09/06 07:33:42;;;;;;;11.93;8.40;;;;;;;-143.84;45.35;44942.44;5088187;28;20436;-59
2023/09/06 07:36:10;;;;;;;14.10;10.10;;;;;;;-143.84;44.67;44942.44;5088064;28;20428;-59
2023/09/06 07:38:39;;;;;;;14.37;8.43;;;;;;;-143.84;44.13;44961.47;5088067;28;20804;-59
2023/09/06 07:41:07;;;;;;;11.43;8.73;;;;;;;-143.84;43.98;44927.19;5087910;28;20444;-59
2023/09/06 07:43:35;;;;;;;14.30;9.57;;;;;;;-143.84;44.04;44969.09;5087784;28;20440;-59
2023/09/06 07:46:04;;;;;;;16.30;8.83;;;;;;;-143.84;43.85;44963.38;5087968;28;20440;-59
2023/09/06 07:48:32;;;;;;;15.80;9.00;;;;;;;-143.84;43.66;44955.75;5087936;28;20440;-59
2023/09/06 07:51:03;;;;;;;11.17;7.40;;;;;;;-143.84;43.91;44951.97;5087842;28;20472;-59
2023/09/06 07:53:30;;;;;;;9.90;7.70;;;;;;;-143.84;44.21;44955.75;5087933;28;20523;-59
2023/09/06 07:55:58;;;;;;;9.03;8.10;;;;;;;-143.84;43.64;44932.91;5087743;28;20500;-59
2023/09/06 07:58:25;;;;;;;13.03;7.07;;;;;;;-143.84;42.96;44925.31;5087526;28;20487;-59
2023/09/06 08:00:53;;;;;;;10.90;8.40;;;;;;;-143.84;42.32;44942.44;5088137;28;20483;-60
2023/09/06 08:03:20;;;;;;;21.87;8.20;;;;;;;-143.84;42.42;44946.25;5087915;28;20958;-59
2023/09/06 08:05:47;;;;;;;17.00;7.80;;;;;;;-143.84;42.28;44957.66;5087826;28;20933;-58
2023/09/06 08:08:14;;;;;;;11.73;8.00;;;;;;;-143.84;41.77;44948.16;5090932;28;20534;-58
2023/09/06 08:10:41;;;;;;;13.80;8.13;;;;;;;-143.84;41.46;44946.25;5091224;28;20475;-57
2023/09/06 08:13:10;;;;;;;12.57;7.77;;;;;;;-143.84;40.84;44942.44;5091202;28;20976;-57
2023/09/06 08:15:38;;;;;;;8.47;7.63;;;;;;;-143.84;41.05;44910.06;5091595;28;20530;-57
2023/09/06 08:18:06;;;;;;;9.00;8.10;;;;;;;-143.84;40.83;44936.72;5091435;28;20450;-57
2023/09/06 08:20:33;;;;;;;15.27;8.37;;;;;;;-143.84;41.62;44940.53;5091462;28;20435;-57
2023/09/06 08:23:00;;;;;;;7.93;6.80;;;;;;;-143.84;41.51;44940.53;5091193;28;20929;-57
2023/09/06 08:25:27;;;;;;;13.73;7.33;;;;;;;-143.84;41.33;44948.16;5091068;28;21126;-57
2023/09/06 08:27:54;;;;;;;9.90;8.13;;;;;;;-143.84;41.08;44931.00;5090939;28;20436;-57
2023/09/06 08:30:23;;;;;;;10.43;7.40;;;;;;;-143.84;41.05;44932.91;5090710;28;20472;-57
2023/09/06 08:32:51;;;;;;;9.50;7.47;;;;;;;-143.84;40.92;44932.91;5091110;28;20440;-57
2023/09/06 08:35:18;;;;;;;13.80;7.97;;;;;;;-143.84;40.46;44917.69;5090892;28;20471;-58
2023/09/06 08:37:47;;;;;;;17.00;8.60;;;;;;;-143.84;40.60;44934.81;5090999;28;20969;-57
2023/09/06 08:40:15;;;;;;;14.37;8.10;;;;;;;-143.84;41.45;44923.41;5090806;28;20444;-57
2023/09/06 08:42:45;;;;;;;20.10;8.77;;;;;;;-143.84;41.17;44923.41;5090771;28;20921;-57
2023/09/06 08:45:12;;;;;;;12.43;7.97;;;;;;;-143.84;41.13;44953.88;5090547;28;20509;-57
2023/09/06 08:47:42;;;;;;;15.90;9.03;;;;;;;-143.84;41.45;44942.44;5090651;28;20493;-57
2023/09/06 08:50:11;;;;;;;11.23;8.57;;;;;;;-143.84;41.29;44976.72;5090704;28;20479;-57
2023/09/06 08:52:41;;;;;;;18.53;8.20;;;;;;;-143.84;41.24;44955.75;5090667;28;20436;-57
2023/09/06 08:55:10;;;;;;;16.43;8.50;;;;;;;-143.84;41.67;44946.25;5090404;28;20526;-57
2023/09/06 08:57:38;;;;;;;12.40;8.50;;;;;;;-143.84;42.42;44950.06;5090702;28;20448;-57
2023/09/06 09:00:08;;;;;;;8.90;7.37;;;;;;;-143.84;42.30;44959.56;5090109;28;20459;-57
2023/09/06 09:02:36;;;;;;;11.27;9.03;;;;;;;-143.84;42.99;44936.72;5090318;28;20439;-57
2023/09/06 09:05:06;;;;;;;11.60;8.83;;;;;;;-143.84;43.45;44957.66;5090513;28;20965;-57
2023/09/06 09:07:33;;;;;;;10.60;8.90;;;;;;;-143.84;43.19;44936.72;5090335;28;20958;-57
2023/09/06 09:10:02;;;;;;;11.77;7.90;;;;;;;-143.84;42.89;44931.00;5090000;28;20533;-57
2023/09/06 09:12:30;;;;;;;17.43;8.17;;;;;;;-143.84;42.81;44961.47;5090028;28;21115;-57
2023/09/06 09:14:59;;;;;;;12.23;7.83;;;;;;;-143.84;41.88;44950.06;5069208;28;20530;-53
2023/09/06 09:17:27;;;;;;;12.93;8.03;;;;;;;-143.84;41.69;44963.38;5061007;28;20456;-53
2023/09/06 09:19:56;;;;;;;8.93;8.13;;;;;;;-143.84;41.90;44911.97;5068982;28;20436;-53
2023/09/06 09:22:26;;;;;;;10.70;8.40;;;;;;;-143.84;42.82;44944.34;5070170;28;20430;-52
2023/09/06 09:24:59;;;;;;;20.40;8.20;;;;;;;-143.84;43.33;44953.88;5069710;28;20491;-52
2023/09/06 09:27:28;;;;;;;14.63;8.30;;;;;;;-143.84;41.88;44972.91;5069945;28;20436;-53
2023/09/06 09:29:56;;;;;;;11.87;7.97;;;;;;;-143.84;42.94;44957.66;5069512;28;20782;-53
2023/09/06 09:32:23;;;;;;;13.37;8.80;;;;;;;-143.84;42.50;44938.63;5069990;28;20520;-52
2023/09/06 09:34:52;;;;;;;13.97;8.80;;;;;;;-143.84;42.81;44953.88;5069522;28;20896;-52
2023/09/06 09:37:19;;;;;;;13.70;8.87;;;;;;;-143.84;42.94;44950.06;5069843;28;20516;-52
2023/09/06 09:39:48;;;;;;;13.10;8.57;;;;;;;-143.84;42.96;44931.00;5069522;28;20440;-53
2023/09/06 09:42:16;;;;;;;12.40;8.57;;;;;;;-143.84;42.95;44932.91;5069375;28;20535;-52
2023/09/06 09:44:43;;;;;;;15.60;7.60;;;;;;;-143.84;43.38;44929.09;5068852;28;20927;-53
2023/09/06 09:47:12;;;;;;;13.00;9.27;;;;;;;-143.84;43.29;44936.72;5069467;28;20858;-52
2023/09/06 09:49:41;;;;;;;15.33;8.70;;;;;;;-143.84;44.21;44929.09;5069473;28;21146;-53
2023/09/06 09:52:16;;;;;;;13.40;8.13;;;;;;;-143.84;43.24;44963.38;5069147;28;20445;-52
2023/09/06 09:54:50;;;;;;;12.30;7.47;;;;;;;-143.84;44.03;44934.81;5069180;28;20460;-53
2023/09/06 09:57:21;;;;;;;9.90;7.43;;;;;;;-143.84;43.31;44929.09;5068994;28;20536;-53
2023/09/06 09:59:50;;;;;;;16.30;8.57;;;;;;;-143.84;42.96;44940.53;5068484;28;20509;-53
2023/09/06 10:02:18;;;;;;;10.60;7.90;;;;;;;-143.84;42.85;44917.69;5069153;28;20558;-53
2023/09/06 10:04:46;;;;;;;11.00;8.57;;;;;;;-143.84;42.39;44908.16;5069376;28;20512;-53
2023/09/06 10:07:15;;;;;;;17.70;8.63;;;;;;;-143.84;41.15;44944.34;5068978;28;20456;-53
2023/09/06 10:09:43;;;;;;;8.90;8.03;;;;;;;-143.84;43.15;44940.53;5069128;28;20440;-53
2023/09/06 10:12:12;;;;;;;25.13;8.80;;;;;;;-143.84;42.93;44927.19;5069038;28;20932;-53
2023/09/06 10:14:43;;;;;;;14.90;7.60;;;;;;;-143.84;42.43;44929.09;5068163;28;20429;-53
2023/09/06 10:17:12;;;;;;;14.47;8.27;;;;;;;-143.84;42.93;44934.81;5068728;28;20441;-53
2023/09/06 10:19:40;;;;;;;13.07;9.60;;;;;;;-143.84;43.16;44942.44;5069194;28;20510;-53
2023/09/06 10:22:11;;;;;;;13.70;8.33;;;;;;;-143.84;41.00;44931.00;5068727;28;20433;-53
2023/09/06 10:24:39;;;;;;;12.77;9.07;;;;;;;-143.84;40.74;44929.09;5068578;28;20440;-53
2023/09/06 10:27:12;;;;;;;18.63;9.43;;;;;;;-143.84;40.46;44927.19;5068651;28;20429;-53
2023/09/06 10:29:54;;;;;;;11.80;9.30;;;;;;;-143.84;41.03;44911.97;5068416;28;20437;-53
2023/09/06 10:32:22;;;;;;;16.03;9.60;;;;;;;-143.84;42.14;44927.19;5068572;28;20465;-53
2023/09/06 10:35:21;;;;;;;17.70;8.70;;;;;;;-143.84;40.57;44948.16;5068446;28;20977;-53
2023/09/06 10:38:06;;;;;;;16.90;9.70;;;;;;;-143.84;41.48;44934.81;5068528;28;20441;-52
2023/09/06 10:41:07;;;;;;;14.60;8.40;;;;;;;-143.84;40.78;44951.97;5068462;28;20455;-52
2023/09/06 10:43:55;;;;;;;25.37;10.23;;;;;;;-143.84;40.96;44957.66;5068336;28;20529;-53
2023/09/06 10:46:28;;;;;;;13.63;9.23;;;;;;;-143.84;40.82;44957.66;5068367;28;20524;-52
2023/09/06 10:49:15;;;;;;;20.43;9.10;;;;;;;-143.84;41.89;44957.66;5068685;28;20441;-52
2023/09/06 10:52:03;;;;;;;12.53;10.20;;;;;;;-143.84;41.09;44929.09;5068389;28;20484;-53
2023/09/06 10:54:34;;;;;;;10.97;8.73;;;;;;;-143.84;40.95;44948.16;5068595;28;20448;-52
2023/09/06 10:57:06;;;;;;;12.10;8.57;;;;;;;-143.84;41.14;44955.75;5068370;28;20907;-53
2023/09/06 10:59:38;;;;;;;10.70;8.47;;;;;;;-143.84;41.54;44919.59;5067650;28;20589;-52
2023/09/06 11:02:15;;;;;;;20.03;8.70;;;;;;;-143.84;41.27;44940.53;5068492;28;20447;-52
2023/09/06 11:04:43;;;;;;;11.97;8.03;;;;;;;-143.84;39.88;44957.66;5068335;28;20992;-53
2023/09/06 11:07:13;;;;;;;9.33;7.57;;;;;;;-143.84;40.93;44927.19;5068019;28;20440;-52
2023/09/06 11:09:43;;;;;;;12.20;8.30;;;;;;;-143.84;39.85;44929.09;5068702;28;20437;-52
2023/09/06 11:12:12;;;;;;;10.70;7.90;;;;;;;-143.84;39.93;44953.88;5068276;28;20546;-52
2023/09/06 11:14:40;;;;;;;8.07;7.33;;;;;;;-143.84;39.43;44931.00;5067662;28;20441;-52
2023/09/06 11:17:09;;;;;;;8.33;7.53;;;;;;;-143.84;40.30;44934.81;5068195;28;20512;-53
2023/09/06 11:19:36;;;;;;;8.57;7.70;;;;;;;-143.84;40.41;44934.81;5068160;28;20459;-52